Airfield :
LOGIN :

Register | Disclaimer

   EN    FR    IT 

 










Legend :    VFR   Marginal VFR   IFR   Intensive IFR   Very Intensive IFR
Visi :
Ceiling :
>= 8 km
>= 3000ft
5 to 8 km
1000 to 3000 ft
1500m to 5 km
500 to 1000 ft
800 to 1500m
200 to 500 ft
< 800m
< 200 ft
Symbols :   Thunderstorms  Fog  Heavy snow  Heavy precipitations  Wind > 20 kt
SIGMETs :     Misc.  Thunderstorms  Icing  Turbulence  Mountain Waves  Volcanic Ashes







- Airport Elevation : 1202 ft
- IATA code : IGS


ETSI - Ingolstadt

CURRENT METAR :
  • 200520Z 27006KT 4000 BR BKN009 09/08 Q1020 GRN GRN TEMPO YLO

EXPIRED METARs :
  • 200420Z 23002KT 5000 BR BKN008 09/08 Q1020 GRN GRN TEMPO YLO
  • 200320Z 30006KT 4000 BR BKN004 09/08 Q1020 YLO

TAF COR TAF ETSI
Valid from the 20 at 05:00 until the 20 at 14:00 UTC


200448Z 2005/2014 25005KT 5000 BR BKN010 BKN070
TEMPO 2005/2008 23003KT 4000 BR BKN006 BKN200
BECMG 2008/2010 27007KT 9999 NSW SCT015 BKN070
TEMPO 2010/2014 27010KT 6000 SHRA SCT010 BKN020 BKN200
No reported NOTAMs for that airfield.



MET'MAP, your aeronautical weather chart ! - Copyright ORBIFLY December 2007 - Disclaimer

ORBIFLY MET'MAP TEAM :

Programming & Development : Alexandra Zaïnal
Concept & Development : Baudouin d'Aumeries
Co-Development & Prog : Marc-Olivier Méhu
Technical & hardware support : Manuel Goepfert

Contact : metmap@orbifly.com




SOURCES & CREDITS :

   NOAA